Air Resources Laboratory banner image
Air Resources Laboratory web site National Oceanic and Atmospheric Administration (NOAA)

pa metar


KABE 110451Z 33003KT 10SM SCT042 BKN055 OVC075 23/17 A2998 RMK AO2 SLP148
 T02280167 403060206 $=
KAFJ 110456Z AUTO 36003KT 10SM SCT024 BKN033 OVC070 20/19 A3011 RMK AO2 SLP188
 T02000194 402330200=
KAGC 110453Z VRB04KT 10SM FEW033 OVC044 21/18 A3008 RMK AO2 SLP181 T02110178
 402440189=
KAOO 110453Z AUTO 01003KT 10SM FEW070 21/17 A3006 RMK AO2 SLP167 T02060172
 402670206=
KAVP 110454Z 08004KT 10SM SCT055 20/15 A3002 RMK AO2 SLP157 T02000150 402890178=
KBFD 110453Z AUTO 00000KT 1 1/4SM BR FEW001 14/12 A3009 RMK AO2 SLP177
 T01440122 402610089 $=
KBTP 110456Z AUTO 00000KT 1/2SM FG VV002 A3009 RMK AO2 SLPNO FZRANO TSNO $=
KBVI 110455Z AUTO 30003KT 10SM CLR 19/16 A3009 RMK AO2 T01910157=
KCXY 110456Z AUTO 26005KT 10SM FEW055 SCT085 SCT110 26/22 A2997 RMK AO2 LTG
 DSNT SE AND S SLP148 T02560217 403110233=
KDUJ 110453Z AUTO 00000KT 10SM CLR 17/15 A3008 RMK AO2 SLP176 T01670150
 402610167=
KDYL 110454Z AUTO 00000KT 10SM BKN042 OVC065 24/20 A2996 RMK AO2 SLP139
 T02440200 403110222=
KERI 110451Z 18005KT 10SM CLR 17/12 A3006 RMK AO2 SLP176 T01670122 402390150=
KFIG 110454Z AUTO 00000KT 10SM CLR 18/17 A3007 RMK AO2 SLP176 T01830172
 402720183=
KFKL 110456Z AUTO 00000KT 5SM BR CLR 14/14 A3009 RMK AO2 SLP186 T01440144
 402560139 $=
KGKJ 110453Z AUTO 00000KT 10SM CLR 16/12 A3009 RMK AO2 SLP183 T01560117
 402560139=
KIDI 110455Z AUTO 33004KT 10SM BKN042 BKN050 19/18 A3011 RMK A01=
KIPT 110454Z AUTO 00000KT 10SM BKN060 19/17 A2999 RMK AO2 SLP152 T01940167
 403000194 $=
KJST 110454Z AUTO 31008KT 10SM BKN029 OVC060 19/16 A3010 RMK AO2 SLP179
 T01940161 402280189=
KLBE 110455Z AUTO 00000KT 10SM FEW037 OVC047 21/20 A3008 RMK AO2=
KLNS 110453Z AUTO 29005KT 10SM -RA OVC040 26/21 A2998 RMK AO2 LTG DSNT SW
 RAB21E32B53 SLP147 P0000 T02560211 403110233=
KMDT 110456Z 26006KT 10SM -TSRA SCT055CB BKN070 OVC090 26/21 A2997 RMK AO2
 RAB50 SLP146 OCNL LTGICCC S TS S MOV E P0000 T02610206 403060239=
KMPO 110453Z AUTO 01003KT 10SM CLR 18/14 A3005 RMK AO2 SLP166 T01780144
 402500161=
KMUI 110456Z AUTO 28004KT 10SM BKN060 BKN075 OVC130 25/18 A2996 RMK AO2 SLP144
 T02500182 402930235=
KPHL 110454Z 25007KT 10SM SCT110 OVC160 27/23 A2995 RMK AO2 SLP140 T02720233
 403280256 $=
KPIT 110451Z 28003KT 10SM FEW038 FEW050 19/17 A3008 RMK AO2 SLP185 T01890172
 402330189=
KPNE 110454Z AUTO 00000KT 10SM CLR 26/21 A2996 RMK AO2 SLP143 T02610211
 403330239=
KPTW 110454Z AUTO 00000KT 10SM FEW047 BKN070 OVC100 22/21 A2999 RMK AO2 SLP150
 T02220206 402830211=
KRDG 110454Z AUTO 27003KT 10SM BKN046 BKN055 OVC070 26/21 A2996 RMK AO2 SLP147
 T02560206 403110222 $=
KSEG 110453Z AUTO 00000KT 10SM SCT050 BKN070 OVC090 22/19 A2999 RMK AO2 SLP150
 T02170194 403000206=
KTHV 110453Z AUTO 28003KT 5SM -RA BR SCT060 SCT080 BKN100 23/21 A2999 RMK AO2
 LTG DSNT E-S RAB31 SLP152 P0000 T02280211 403170222=
KUNV 110455Z AUTO 26006KT 10SM BKN050 OVC075 21/18 A3005 RMK AO2 LTG DSNT SE
 T02070175=